Time;durP1;ratioP1;P1;durP2;ratioP2;P2;SDS_P1;SDS_P2;PMS_P1;PMS_P2;Temp;Humidity;BMP_temperature;BMP_pressure;BME280_temperature;BME280_humidity;BME280_pressure;Samples;Min_cycle;Max_cycle;Signal;HPM_P1;HPM_P2
2021/03/11 00:01:43;;;;;;;35.53;19.43;;;7.40;99.90;;;;;;5007260;28;20040;-58
2021/03/11 00:04:08;;;;;;;36.87;19.77;;;7.40;99.90;;;;;;5007103;28;20025;-58
2021/03/11 00:06:34;;;;;;;36.23;19.50;;;7.50;99.90;;;;;;5008520;28;20104;-58
2021/03/11 00:08:59;;;;;;;31.60;18.60;;;7.50;99.90;;;;;;5008294;28;20107;-58
2021/03/11 00:11:28;;;;;;;30.30;18.17;;;7.50;99.90;;;;;;5008725;28;20087;-58
2021/03/11 00:13:55;;;;;;;30.43;18.50;;;7.50;99.90;;;;;;5008756;28;20030;-58
2021/03/11 00:16:21;;;;;;;33.37;19.20;;;7.50;99.90;;;;;;5007607;28;20115;-58
2021/03/11 00:18:47;;;;;;;35.20;19.80;;;7.50;99.90;;;;;;5007194;28;20374;-57
2021/03/11 00:21:13;;;;;;;29.43;18.07;;;7.50;99.90;;;;;;5012361;28;20482;-57
2021/03/11 00:23:38;;;;;;;27.40;17.67;;;7.60;99.90;;;;;;5011745;28;20078;-57
2021/03/11 00:26:04;;;;;;;30.07;19.30;;;7.60;99.90;;;;;;5010960;28;20068;-58
2021/03/11 00:28:32;;;;;;;36.40;18.63;;;7.60;99.90;;;;;;5011802;28;20033;-57
2021/03/11 00:30:58;;;;;;;27.10;17.33;;;7.60;99.90;;;;;;5012260;28;20033;-58
2021/03/11 00:33:24;;;;;;;25.90;17.57;;;7.70;99.90;;;;;;5012111;28;20044;-58
2021/03/11 00:35:50;;;;;;;27.60;17.67;;;7.80;99.90;;;;;;5012583;28;20614;-58
2021/03/11 00:38:16;;;;;;;25.07;15.93;;;7.80;99.90;;;;;;5012071;28;20029;-58
2021/03/11 00:40:43;;;;;;;27.53;16.00;;;7.90;99.90;;;;;;5011336;28;20130;-57
2021/03/11 00:43:11;;;;;;;23.43;15.07;;;7.90;99.90;;;;;;5012077;28;20026;-58
2021/03/11 00:45:37;;;;;;;25.90;15.33;;;7.90;99.90;;;;;;5011813;28;20026;-57
2021/03/11 00:48:03;;;;;;;25.50;14.50;;;8.00;99.90;;;;;;5011916;28;20094;-57
2021/03/11 00:50:29;;;;;;;23.50;13.97;;;8.00;99.90;;;;;;5011670;28;20030;-57
2021/03/11 00:52:55;;;;;;;27.10;14.07;;;8.00;99.90;;;;;;5011379;28;20030;-58
2021/03/11 00:55:21;;;;;;;22.10;13.80;;;8.10;99.90;;;;;;5012449;28;20041;-57
2021/03/11 00:57:47;;;;;;;22.73;13.40;;;8.10;99.90;;;;;;5013177;28;20022;-57
2021/03/11 01:00:21;;;;;;;24.67;12.90;;;8.20;99.90;;;;;;5014752;28;20133;-57
2021/03/11 01:02:48;;;;;;;20.60;13.07;;;8.20;99.90;;;;;;5014469;28;20371;-58
2021/03/11 01:05:19;;;;;;;27.03;13.73;;;8.20;99.90;;;;;;5045816;28;20670;-58
2021/03/11 01:07:47;;;;;;;19.87;12.60;;;8.30;99.90;;;;;;5014523;28;20655;-58
2021/03/11 01:10:15;;;;;;;20.90;11.70;;;8.20;99.90;;;;;;5012893;28;20033;-59
2021/03/11 01:12:41;;;;;;;21.50;13.40;;;8.30;99.90;;;;;;5011814;28;20055;-58
2021/03/11 01:15:07;;;;;;;19.57;12.43;;;8.40;99.90;;;;;;5012311;28;20053;-58
2021/03/11 01:17:33;;;;;;;22.70;11.70;;;8.40;99.90;;;;;;5045369;28;20030;-58
2021/03/11 01:19:59;;;;;;;22.10;12.23;;;8.40;99.90;;;;;;5012147;28;20069;-58
2021/03/11 01:22:31;;;;;;;18.23;11.60;;;8.40;99.90;;;;;;5012560;28;20038;-58
2021/03/11 01:24:57;;;;;;;15.45;9.70;;;8.40;99.90;;;;;;5012023;28;21833;-58
2021/03/11 01:27:23;;;;;;;15.90;10.43;;;8.40;99.90;;;;;;5012418;28;20161;-58
2021/03/11 01:29:48;;;;;;;21.47;10.27;;;8.50;99.90;;;;;;5013096;28;20117;-58
2021/03/11 01:32:14;;;;;;;12.90;8.37;;;8.50;99.90;;;;;;5013053;28;20049;-58
2021/03/11 01:34:42;;;;;;;14.57;9.20;;;8.50;99.90;;;;;;5010136;28;20033;-58
2021/03/11 01:37:07;;;;;;;18.00;9.30;;;8.50;99.90;;;;;;5011172;28;20044;-58
2021/03/11 01:39:33;;;;;;;13.40;8.37;;;8.50;99.90;;;;;;5045199;28;20025;-58
2021/03/11 01:42:01;;;;;;;12.97;8.17;;;8.50;99.90;;;;;;5044615;28;20029;-58
2021/03/11 01:44:26;;;;;;;13.53;7.97;;;8.50;99.90;;;;;;5012990;28;20030;-58
2021/03/11 01:46:52;;;;;;;10.30;6.57;;;8.50;99.90;;;;;;5013188;28;20036;-60
2021/03/11 01:49:18;;;;;;;11.77;7.60;;;8.50;99.90;;;;;;5012320;28;20462;-58
2021/03/11 01:51:47;;;;;;;9.47;6.13;;;8.50;99.90;;;;;;5012719;28;20043;-58
2021/03/11 01:54:13;;;;;;;10.33;6.37;;;8.50;99.90;;;;;;5013607;28;20040;-58
2021/03/11 01:56:43;;;;;;;10.60;6.03;;;8.60;99.90;;;;;;5011921;28;20044;-58
2021/03/11 01:59:12;;;;;;;12.70;6.50;;;8.60;99.90;;;;;;5013082;28;20077;-59
2021/03/11 02:01:40;;;;;;;10.50;5.90;;;8.50;99.90;;;;;;5012470;28;20037;-58
2021/03/11 02:04:06;;;;;;;8.03;5.40;;;8.60;99.90;;;;;;5013416;28;20475;-58
2021/03/11 02:06:31;;;;;;;8.23;5.20;;;8.60;99.90;;;;;;5015764;28;20036;-58
2021/03/11 02:09:00;;;;;;;8.27;5.00;;;8.60;99.90;;;;;;5012572;28;20025;-58
2021/03/11 02:11:33;;;;;;;8.33;5.13;;;8.60;99.90;;;;;;5012901;28;20029;-58
2021/03/11 02:14:13;;;;;;;6.93;4.83;;;8.60;99.90;;;;;;5012711;28;20473;-58
2021/03/11 02:16:48;;;;;;;7.17;4.20;;;8.60;99.90;;;;;;5012597;28;20080;-58
2021/03/11 02:19:51;;;;;;;7.77;4.50;;;8.60;99.90;;;;;;5012606;28;20142;-58
2021/03/11 02:22:20;;;;;;;6.43;4.30;;;8.60;99.90;;;;;;5012210;28;20025;-58
2021/03/11 02:25:21;;;;;;;7.60;4.50;;;8.70;99.90;;;;;;5011642;28;20053;-58
2021/03/11 02:27:47;;;;;;;5.43;3.47;;;8.70;99.90;;;;;;5012603;28;20034;-59
2021/03/11 02:30:15;;;;;;;6.50;4.43;;;8.70;99.90;;;;;;5013125;28;20025;-58
2021/03/11 02:32:44;;;;;;;7.43;4.33;;;8.70;99.90;;;;;;5012954;28;20037;-58
2021/03/11 02:35:11;;;;;;;6.53;4.53;;;8.70;99.90;;;;;;5011380;28;20373;-58
2021/03/11 02:37:49;;;;;;;7.00;3.53;;;8.70;99.90;;;;;;5011944;28;20113;-58
2021/03/11 02:40:14;;;;;;;5.73;3.80;;;8.70;99.90;;;;;;5012736;28;20026;-58
2021/03/11 02:42:43;;;;;;;7.67;4.27;;;8.70;99.90;;;;;;5010997;28;20477;-58
2021/03/11 02:45:13;;;;;;;5.90;4.00;;;8.70;99.90;;;;;;5014061;28;20037;-58
2021/03/11 02:47:41;;;;;;;6.00;3.60;;;8.70;99.90;;;;;;4996563;28;20053;-58
2021/03/11 02:50:08;;;;;;;6.77;3.93;;;8.80;99.90;;;;;;5011827;28;20029;-58
2021/03/11 02:52:35;;;;;;;5.80;4.20;;;8.80;99.90;;;;;;5012769;28;20061;-62
2021/03/11 02:55:04;;;;;;;6.00;3.57;;;8.80;99.90;;;;;;5011659;28;20035;-58
2021/03/11 02:57:38;;;;;;;6.97;3.77;;;8.80;99.90;;;;;;5010890;28;20094;-58
2021/03/11 03:00:09;;;;;;;7.27;4.27;;;8.80;99.90;;;;;;5012306;28;20037;-59
2021/03/11 03:02:37;;;;;;;5.57;3.93;;;8.80;99.90;;;;;;5011264;28;20708;-59
2021/03/11 03:05:04;;;;;;;5.27;3.67;;;8.80;99.90;;;;;;5011967;28;20059;-58
2021/03/11 03:07:31;;;;;;;5.07;3.30;;;8.80;99.90;;;;;;5012761;28;20034;-59
2021/03/11 03:09:59;;;;;;;6.43;4.17;;;8.80;99.90;;;;;;5011677;28;20032;-58
2021/03/11 03:12:28;;;;;;;6.90;4.83;;;8.80;99.90;;;;;;5012739;28;20041;-58
2021/03/11 03:14:54;;;;;;;6.77;3.67;;;8.80;99.90;;;;;;5010877;28;20030;-58
2021/03/11 03:17:23;;;;;;;5.27;3.67;;;8.80;99.90;;;;;;5010107;28;20056;-58
2021/03/11 03:19:51;;;;;;;6.43;3.93;;;8.80;99.90;;;;;;5009313;28;20099;-59
2021/03/11 03:22:18;;;;;;;5.27;4.13;;;8.80;99.90;;;;;;5008407;28;20037;-58
2021/03/11 03:24:48;;;;;;;6.80;3.97;;;8.90;99.90;;;;;;5010770;28;20117;-58
2021/03/11 03:27:14;;;;;;;6.57;4.37;;;8.90;99.90;;;;;;5008803;28;20062;-58
2021/03/11 03:29:41;;;;;;;6.53;3.87;;;8.90;99.90;;;;;;5009445;28;20068;-58
2021/03/11 03:32:08;;;;;;;6.07;3.83;;;8.90;99.90;;;;;;5009183;28;20037;-58
2021/03/11 03:34:36;;;;;;;5.13;3.40;;;8.90;99.90;;;;;;5008799;28;20037;-58
2021/03/11 03:37:03;;;;;;;5.87;3.60;;;8.90;99.90;;;;;;5006914;28;20030;-58
2021/03/11 03:39:30;;;;;;;5.30;3.80;;;8.90;99.90;;;;;;5008967;28;20076;-58
2021/03/11 03:41:57;;;;;;;5.23;3.40;;;8.90;99.90;;;;;;5006244;28;20121;-58
2021/03/11 03:44:27;;;;;;;5.37;3.17;;;8.90;99.90;;;;;;5008899;28;20029;-58
2021/03/11 03:46:54;;;;;;;6.30;3.90;;;8.90;99.90;;;;;;5016681;28;20037;-58
2021/03/11 03:49:24;;;;;;;5.67;3.40;;;8.80;99.90;;;;;;5009173;28;20038;-58
2021/03/11 03:51:54;;;;;;;5.70;3.40;;;8.70;99.90;;;;;;5008837;28;20094;-58
2021/03/11 03:54:24;;;;;;;5.53;3.97;;;8.60;99.90;;;;;;5011060;28;20045;-57
2021/03/11 03:57:01;;;;;;;6.57;3.90;;;8.50;99.90;;;;;;5012783;28;20037;-58
2021/03/11 03:59:31;;;;;;;5.97;4.20;;;8.50;99.90;;;;;;5010878;28;20069;-58
2021/03/11 04:01:58;;;;;;;5.43;3.70;;;8.50;99.90;;;;;;5012595;28;20034;-58
2021/03/11 04:04:29;;;;;;;6.77;3.90;;;8.50;99.90;;;;;;5012331;28;20060;-58
2021/03/11 04:06:57;;;;;;;5.97;3.90;;;8.50;99.90;;;;;;5012502;28;20031;-58
2021/03/11 04:09:25;;;;;;;4.63;3.53;;;8.60;99.90;;;;;;5012191;28;20032;-58
2021/03/11 04:11:51;;;;;;;6.07;3.80;;;8.70;99.90;;;;;;5045325;28;20037;-58
2021/03/11 04:14:19;;;;;;;6.83;4.30;;;8.70;99.90;;;;;;5012369;28;20025;-58
2021/03/11 04:16:46;;;;;;;7.80;3.93;;;8.80;99.90;;;;;;5044385;28;20030;-58
2021/03/11 04:19:13;;;;;;;4.77;3.53;;;8.80;99.90;;;;;;5011400;28;20641;-59
2021/03/11 04:21:44;;;;;;;6.03;3.83;;;8.90;99.90;;;;;;5012549;28;20629;-59
2021/03/11 04:24:13;;;;;;;4.77;3.27;;;8.90;99.90;;;;;;5013305;28;20045;-58
2021/03/11 04:26:39;;;;;;;5.27;3.57;;;8.90;99.90;;;;;;5011965;28;20029;-58
2021/03/11 04:29:06;;;;;;;4.07;2.93;;;9.00;99.90;;;;;;5012684;28;20030;-59
2021/03/11 04:31:33;;;;;;;4.13;3.00;;;9.00;99.90;;;;;;5011999;28;20033;-59
2021/03/11 04:34:03;;;;;;;4.47;3.23;;;9.00;99.90;;;;;;5012361;28;20030;-59
2021/03/11 04:36:30;;;;;;;4.33;3.20;;;9.10;99.90;;;;;;5012617;28;20488;-60
2021/03/11 04:38:56;;;;;;;4.40;3.20;;;9.10;99.90;;;;;;5017786;28;20038;-60
2021/03/11 04:41:22;;;;;;;5.93;3.20;;;9.10;99.90;;;;;;5011581;28;20180;-59
2021/03/11 04:43:48;;;;;;;3.73;2.97;;;9.10;99.90;;;;;;5011836;28;20025;-58
2021/03/11 04:46:18;;;;;;;4.17;2.83;;;9.20;99.90;;;;;;5011036;28;20045;-58
2021/03/11 04:48:44;;;;;;;4.53;3.10;;;9.20;99.90;;;;;;5011874;28;20022;-58
2021/03/11 04:51:16;;;;;;;3.77;2.53;;;9.20;99.90;;;;;;5012409;28;20037;-59
2021/03/11 04:53:42;;;;;;;3.13;2.47;;;9.30;99.90;;;;;;5012236;28;20362;-59
2021/03/11 04:56:10;;;;;;;2.67;2.20;;;9.20;99.90;;;;;;5011881;28;20040;-58
2021/03/11 04:58:38;;;;;;;3.53;2.30;;;9.30;99.90;;;;;;5010605;28;20033;-58
2021/03/11 05:01:11;;;;;;;3.40;2.37;;;9.30;99.90;;;;;;5011045;28;20029;-57
2021/03/11 05:03:42;;;;;;;3.60;2.40;;;9.30;99.90;;;;;;5011027;28;20025;-57
2021/03/11 05:06:08;;;;;;;3.73;2.70;;;9.40;99.90;;;;;;5011697;28;20021;-57
2021/03/11 05:08:33;;;;;;;2.97;2.30;;;9.30;99.90;;;;;;5011511;28;20335;-58
2021/03/11 05:11:01;;;;;;;3.13;2.07;;;9.30;99.90;;;;;;5014041;28;21626;-57
2021/03/11 05:13:30;;;;;;;2.63;2.00;;;9.40;99.90;;;;;;5010005;28;20029;-57
2021/03/11 05:16:01;;;;;;;3.17;2.10;;;9.40;99.90;;;;;;5010271;28;20049;-57
2021/03/11 05:18:29;;;;;;;3.00;2.30;;;9.40;99.90;;;;;;5010887;28;20489;-56
2021/03/11 05:20:57;;;;;;;3.13;2.07;;;9.40;99.90;;;;;;5009962;28;20554;-57
2021/03/11 05:23:23;;;;;;;3.37;2.30;;;9.50;99.90;;;;;;5010291;28;20048;-59
2021/03/11 05:25:52;;;;;;;2.87;2.20;;;9.50;99.90;;;;;;5010595;28;20021;-57
2021/03/11 05:28:17;;;;;;;3.30;2.30;;;9.50;99.90;;;;;;5012878;28;20029;-58
2021/03/11 05:30:43;;;;;;;3.50;2.30;;;9.60;99.90;;;;;;5011148;28;20080;-58
2021/03/11 05:33:11;;;;;;;3.40;2.17;;;9.50;99.90;;;;;;5009209;28;20115;-58
2021/03/11 05:35:41;;;;;;;4.03;2.73;;;9.60;99.90;;;;;;5010202;28;20033;-57
2021/03/11 05:38:09;;;;;;;2.93;2.37;;;9.60;99.90;;;;;;5010639;28;20064;-58
2021/03/11 05:40:40;;;;;;;3.70;2.70;;;9.60;99.90;;;;;;5009809;28;20052;-58
2021/03/11 05:43:08;;;;;;;4.13;2.43;;;9.60;99.90;;;;;;5010144;28;20136;-58
2021/03/11 05:45:36;;;;;;;3.50;2.63;;;9.70;99.90;;;;;;5015505;28;20033;-58
2021/03/11 05:48:06;;;;;;;4.93;2.73;;;9.70;99.90;;;;;;5009581;28;20029;-58
2021/03/11 05:50:32;;;;;;;5.03;3.17;;;9.70;99.90;;;;;;5009564;28;20056;-58
2021/03/11 05:53:00;;;;;;;3.67;2.80;;;9.70;99.90;;;;;;5008451;28;20042;-58
2021/03/11 05:55:26;;;;;;;4.17;3.23;;;9.60;99.90;;;;;;5010418;28;20469;-57
2021/03/11 05:57:52;;;;;;;5.30;2.70;;;9.70;99.90;;;;;;5010899;28;20247;-58
2021/03/11 06:00:20;;;;;;;3.80;2.70;;;9.70;99.90;;;;;;5009572;28;20033;-57
2021/03/11 06:02:55;;;;;;;4.40;3.17;;;9.70;99.90;;;;;;5009053;28;20026;-57
2021/03/11 06:05:21;;;;;;;4.03;3.13;;;9.60;99.90;;;;;;5009664;28;20034;-58
2021/03/11 06:07:48;;;;;;;4.60;3.60;;;9.60;99.90;;;;;;5010093;28;20495;-57
2021/03/11 06:10:19;;;;;;;4.83;3.30;;;9.70;99.90;;;;;;5009509;28;20041;-58
2021/03/11 06:12:46;;;;;;;6.50;3.33;;;9.70;99.90;;;;;;5010063;28;20438;-57
2021/03/11 06:15:17;;;;;;;4.20;2.93;;;9.70;99.90;;;;;;5041511;28;20038;-58
2021/03/11 06:17:43;;;;;;;4.00;3.27;;;9.80;99.90;;;;;;5008983;28;20067;-58
2021/03/11 06:20:10;;;;;;;6.13;4.50;;;9.80;99.90;;;;;;5009706;28;20368;-58
2021/03/11 06:22:37;;;;;;;6.60;4.53;;;9.90;99.90;;;;;;5012483;28;20053;-58
2021/03/11 06:25:05;;;;;;;7.27;4.60;;;9.90;99.90;;;;;;5009777;28;20026;-58
2021/03/11 06:27:30;;;;;;;5.73;4.27;;;10.00;99.90;;;;;;5041515;28;20584;-58
2021/03/11 06:29:57;;;;;;;4.87;3.53;;;10.10;99.90;;;;;;5010228;28;20034;-58
2021/03/11 06:32:26;;;;;;;4.73;3.23;;;10.10;99.90;;;;;;5009536;28;20033;-58
2021/03/11 06:34:52;;;;;;;4.80;3.50;;;10.20;99.90;;;;;;5024206;28;20033;-58
2021/03/11 06:37:39;;;;;;;7.33;4.47;;;10.20;99.90;;;;;;5009519;28;20344;-58
2021/03/11 06:40:26;;;;;;;6.27;4.77;;;10.20;99.90;;;;;;5009589;28;20061;-59
2021/03/11 06:43:07;;;;;;;7.60;4.77;;;10.30;99.90;;;;;;5040198;28;20036;-61
2021/03/11 06:45:34;;;;;;;6.60;4.50;;;10.30;99.90;;;;;;5009122;28;20167;-58
2021/03/11 06:48:29;;;;;;;7.20;5.20;;;10.30;99.90;;;;;;5010762;28;20044;-58
2021/03/11 06:50:59;;;;;;;6.97;4.50;;;10.40;99.90;;;;;;5008857;28;20036;-58
2021/03/11 06:53:28;;;;;;;5.77;4.17;;;10.40;99.90;;;;;;5041106;28;20049;-59
2021/03/11 06:55:53;;;;;;;5.07;3.93;;;10.40;99.90;;;;;;5008915;28;20371;-59
2021/03/11 06:58:23;;;;;;;4.53;3.40;;;10.40;99.90;;;;;;5006143;28;20099;-58
2021/03/11 07:01:06;;;;;;;4.40;3.20;;;10.50;99.90;;;;;;5009552;28;20025;-58
2021/03/11 07:03:40;;;;;;;4.10;2.90;;;10.50;99.90;;;;;;4996100;28;20037;-57
2021/03/11 07:06:07;;;;;;;6.60;3.60;;;10.50;99.90;;;;;;5008490;28;20030;-58
2021/03/11 07:08:47;;;;;;;3.23;2.30;;;10.50;99.90;;;;;;5039921;28;20065;-59
2021/03/11 07:11:13;;;;;;;4.43;2.30;;;10.50;99.90;;;;;;5010946;28;20042;-59
2021/03/11 07:13:43;;;;;;;5.30;2.03;;;10.60;99.90;;;;;;5008659;28;20037;-57
2021/03/11 07:16:19;;;;;;;3.87;2.50;;;10.60;99.90;;;;;;5008979;28;20034;-57
2021/03/11 07:18:45;;;;;;;2.23;1.77;;;10.60;99.90;;;;;;5008588;28;20378;-58
2021/03/11 07:21:14;;;;;;;5.87;2.43;;;10.60;99.90;;;;;;5014340;28;20037;-58
2021/03/11 07:23:47;;;;;;;3.10;2.50;;;10.60;99.90;;;;;;5009161;28;20025;-58
2021/03/11 07:26:14;;;;;;;4.10;2.40;;;10.60;99.90;;;;;;5008593;28;20034;-58
2021/03/11 07:28:42;;;;;;;5.40;2.70;;;10.70;99.90;;;;;;5010068;28;21891;-58
2021/03/11 07:31:08;;;;;;;3.63;2.63;;;10.70;99.90;;;;;;5012298;28;20123;-58
2021/03/11 07:33:36;;;;;;;3.63;2.40;;;10.80;99.90;;;;;;5045155;28;20037;-58
2021/03/11 07:36:07;;;;;;;4.50;2.50;;;10.80;99.90;;;;;;5012939;28;20026;-58
2021/03/11 07:38:35;;;;;;;4.63;3.50;;;10.80;99.90;;;;;;5044059;28;20124;-57
2021/03/11 07:41:03;;;;;;;5.10;3.83;;;10.80;99.90;;;;;;5013088;28;20108;-58
2021/03/11 07:43:30;;;;;;;6.67;3.57;;;10.90;99.90;;;;;;5012567;28;20038;-58
2021/03/11 07:46:01;;;;;;;3.47;2.60;;;10.90;99.90;;;;;;5010899;28;21948;-58
2021/03/11 07:48:29;;;;;;;5.63;3.90;;;11.00;99.90;;;;;;5012035;28;20116;-59
2021/03/11 07:50:58;;;;;;;6.63;4.50;;;11.10;99.90;;;;;;5013223;28;20025;-58
2021/03/11 07:53:25;;;;;;;5.43;4.07;;;11.00;99.90;;;;;;5012610;28;20045;-58
2021/03/11 07:55:54;;;;;;;6.23;3.70;;;11.10;99.90;;;;;;5011735;28;20064;-58
2021/03/11 07:58:23;;;;;;;6.23;3.80;;;11.10;99.90;;;;;;5012978;28;20033;-58
2021/03/11 08:00:51;;;;;;;6.30;3.13;;;11.20;99.90;;;;;;5011324;28;20037;-60
2021/03/11 08:03:20;;;;;;;6.53;4.07;;;11.30;99.90;;;;;;5014471;28;20033;-59
2021/03/11 08:05:46;;;;;;;5.53;3.37;;;11.40;99.90;;;;;;5011835;28;20033;-58
2021/03/11 08:08:28;;;;;;;5.20;3.60;;;11.60;99.90;;;;;;5012842;28;20080;-58
2021/03/11 08:11:01;;;;;;;7.50;3.38;;;11.70;99.90;;;;;;5012875;28;20033;-58
2021/03/11 08:13:29;;;;;;;;;;;11.80;99.90;;;;;;5012931;28;20037;-58
2021/03/11 08:15:55;;;;;;;6.60;3.83;;;11.80;99.90;;;;;;5012617;28;19968;-57
2021/03/11 08:18:33;;;;;;;5.97;4.57;;;;;;;;;;5012663;28;20033;-58
2021/03/11 08:21:00;;;;;;;6.90;4.23;;;11.50;99.90;;;;;;5011536;28;20033;-57
2021/03/11 08:23:33;;;;;;;6.60;4.17;;;11.30;99.90;;;;;;5011949;28;20112;-57
2021/03/11 08:26:00;;;;;;;7.03;4.50;;;11.20;99.90;;;;;;5012485;28;20033;-59
2021/03/11 08:28:26;;;;;;;6.30;4.70;;;11.10;99.90;;;;;;5011740;28;20362;-57
2021/03/11 08:30:53;;;;;;;6.27;3.23;;;11.00;99.90;;;;;;5011695;28;20026;-57
2021/03/11 08:33:19;;;;;;;5.10;3.33;;;11.00;99.90;;;;;;5012602;28;20077;-58
2021/03/11 08:35:49;;;;;;;4.50;2.80;;;11.00;99.90;;;;;;5012531;28;20104;-57
2021/03/11 08:38:21;;;;;;;4.77;2.80;;;11.10;99.90;;;;;;5011604;28;20033;-58
2021/03/11 08:41:14;;;;;;;4.87;2.43;;;11.20;99.90;;;;;;5009247;28;20080;-57
2021/03/11 08:43:40;;;;;;;4.27;2.77;;;11.20;99.90;;;;;;5011101;28;20037;-58
2021/03/11 08:46:13;;;;;;;4.30;2.97;;;11.20;99.90;;;;;;5011995;28;20053;-58
2021/03/11 08:49:00;;;;;;;6.57;3.08;;;11.20;99.90;;;;;;5011456;28;20025;-57
2021/03/11 08:51:25;;;;;;;3.87;2.57;;;11.20;99.90;;;;;;5011595;28;21133;-57
2021/03/11 08:54:01;;;;;;;5.90;3.33;;;11.20;99.90;;;;;;5011032;28;20045;-58
2021/03/11 08:56:26;;;;;;;6.37;2.33;;;11.20;99.90;;;;;;5011818;28;20061;-57
2021/03/11 08:59:02;;;;;;;3.63;2.93;;;;;;;;;;5011171;28;20144;-57
2021/03/11 09:01:33;;;;;;;4.83;3.10;;;11.10;99.90;;;;;;5011085;28;20438;-57
2021/03/11 09:03:59;;;;;;;3.83;2.70;;;10.90;99.90;;;;;;5010409;28;20030;-57
2021/03/11 09:06:58;;;;;;;3.83;2.93;;;10.90;99.90;;;;;;5011219;28;20026;-57
2021/03/11 09:09:46;;;;;;;3.97;2.57;;;10.90;99.90;;;;;;5017506;28;20026;-58
2021/03/11 09:12:35;;;;;;;4.93;2.27;;;10.90;99.90;;;;;;5010231;28;20030;-58
2021/03/11 09:15:06;;;;;;;4.77;2.50;;;11.00;99.90;;;;;;5017227;28;20083;-57
2021/03/11 09:17:36;;;;;;;4.17;2.40;;;11.10;99.90;;;;;;5010932;28;20113;-57
2021/03/11 09:20:05;;;;;;;5.23;2.47;;;11.20;99.90;;;;;;5008998;28;20049;-58
2021/03/11 09:22:37;;;;;;;3.80;2.87;;;11.30;99.90;;;;;;5011150;28;20037;-57
2021/03/11 09:25:08;;;;;;;5.07;2.90;;;11.40;99.90;;;;;;5011152;28;20030;-57
2021/03/11 09:27:36;;;;;;;8.10;3.53;;;11.50;99.90;;;;;;5011236;28;20404;-57
2021/03/11 09:30:09;;;;;;;8.27;5.43;;;11.70;99.90;;;;;;5010791;28;20026;-58
2021/03/11 09:32:37;;;;;;;13.07;6.23;;;11.70;99.90;;;;;;5043004;28;20029;-60
2021/03/11 09:35:06;;;;;;;4.60;1.67;;;11.30;99.90;;;;;;5010678;28;20041;-59
2021/03/11 09:37:54;;;;;;;7.40;1.83;;;10.70;99.90;;;;;;5010824;28;20033;-60
2021/03/11 09:40:36;;;;;;;9.43;1.97;;;10.30;99.90;;;;;;5010095;28;20033;-61
2021/03/11 09:43:22;;;;;;;6.72;1.33;;;10.10;99.90;;;;;;5010290;28;20098;-60
2021/03/11 09:45:54;;;;;;;17.37;3.43;;;10.00;99.90;;;;;;5010155;28;20053;-60
2021/03/11 09:48:31;;;;;;;8.50;2.10;;;9.90;99.90;;;;;;5010615;28;20096;-62
2021/03/11 09:51:11;;;;;;;15.37;3.93;;;9.90;99.90;;;;;;5009888;28;21736;-59
2021/03/11 09:53:47;;;;;;;15.37;3.67;;;9.90;99.90;;;;;;5010522;28;20030;-60
2021/03/11 09:56:31;;;;;;;14.03;2.97;;;9.80;99.90;;;;;;5016845;28;21905;-60
2021/03/11 09:59:04;;;;;;;12.23;2.67;;;9.90;99.90;;;;;;5010821;28;20025;-60
2021/03/11 10:01:37;;;;;;;19.00;3.63;;;10.10;99.90;;;;;;5008943;28;20047;-60
2021/03/11 10:04:18;;;;;;;14.73;2.65;;;10.20;99.90;;;;;;5042082;28;20034;-59
2021/03/11 10:06:48;;;;;;;16.27;3.23;;;10.20;99.90;;;;;;5007564;28;20335;-60
2021/03/11 10:09:13;;;;;;;14.53;2.67;;;10.30;99.90;;;;;;5009652;28;20056;-60
2021/03/11 10:11:44;;;;;;;16.67;2.67;;;10.40;99.90;;;;;;5009710;28;20474;-60
2021/03/11 10:14:20;;;;;;;12.27;2.63;;;10.60;99.90;;;;;;5010356;28;20642;-60
2021/03/11 10:16:50;;;;;;;13.10;2.83;;;10.90;99.90;;;;;;5010459;28;20025;-60
2021/03/11 10:19:36;;;;;;;14.53;2.43;;;11.10;99.90;;;;;;5010575;28;20046;-59
2021/03/11 10:22:06;;;;;;;12.13;2.80;;;11.30;99.90;;;;;;5026032;28;20157;-59
2021/03/11 10:24:44;;;;;;;8.30;2.07;;;11.30;99.90;;;;;;5010286;28;20030;-58
2021/03/11 10:27:27;;;;;;;13.47;2.53;;;11.50;99.90;;;;;;5008583;28;20030;-58
2021/03/11 10:30:07;;;;;;;;;;;11.60;99.90;;;;;;5009673;28;20160;-58
2021/03/11 10:32:35;;;;;;;11.10;1.90;;;11.80;99.90;;;;;;5009349;28;19921;-58
2021/03/11 10:35:01;;;;;;;7.03;2.03;;;12.00;99.90;;;;;;5008944;28;20037;-61
2021/03/11 10:37:32;;;;;;;8.30;2.00;;;12.20;99.90;;;;;;5009064;28;20449;-58
2021/03/11 10:40:04;;;;;;;7.50;1.67;;;12.30;99.80;;;;;;5010241;28;20034;-58
2021/03/11 10:42:47;;;;;;;9.00;2.23;;;12.40;99.40;;;;;;5039651;28;20156;-58
2021/03/11 10:45:15;;;;;;;;;;;12.50;97.80;;;;;;5009835;28;20025;-58
2021/03/11 10:47:43;;;;;;;5.13;1.67;;;12.70;96.80;;;;;;5008722;28;20432;-58
2021/03/11 10:50:24;;;;;;;10.13;2.23;;;12.80;95.80;;;;;;5009649;28;20112;-58
2021/03/11 10:52:54;;;;;;;8.03;2.10;;;12.90;95.70;;;;;;5010526;28;20029;-58
2021/03/11 10:55:37;;;;;;;8.77;1.80;;;13.10;93.70;;;;;;4999580;28;20034;-58
2021/03/11 10:58:06;;;;;;;9.60;1.67;;;13.30;92.90;;;;;;5002314;28;20038;-58
2021/03/11 11:00:36;;;;;;;7.77;2.27;;;13.40;91.50;;;;;;5013207;28;20034;-58
2021/03/11 11:03:04;;;;;;;9.33;2.03;;;13.50;90.80;;;;;;5008096;28;20032;-58
2021/03/11 11:05:37;;;;;;;14.20;2.37;;;13.60;91.20;;;;;;5007882;28;20122;-58
2021/03/11 11:08:06;;;;;;;8.87;1.87;;;;;;;;;;5007742;28;20034;-59
2021/03/11 11:10:37;;;;;;;10.07;2.77;;;13.90;99.90;;;;;;5008493;28;20036;-59
2021/03/11 11:13:02;;;;;;;7.63;2.00;;;14.10;86.10;;;;;;5009034;28;20044;-59
2021/03/11 11:15:31;;;;;;;16.50;3.17;;;14.00;79.80;;;;;;5008967;28;20026;-58
2021/03/11 11:18:02;;;;;;;8.10;2.10;;;14.10;72.40;;;;;;5008127;28;20026;-58
2021/03/11 11:20:30;;;;;;;10.77;2.07;;;14.20;69.30;;;;;;5009266;28;20080;-58
2021/03/11 11:22:55;;;;;;;6.70;1.83;;;14.30;67.90;;;;;;5008146;28;20803;-59
2021/03/11 11:25:24;;;;;;;6.37;1.30;;;14.40;64.90;;;;;;5008934;28;20076;-59
2021/03/11 11:27:49;;;;;;;7.07;1.83;;;14.40;63.70;;;;;;5008663;28;20533;-58
2021/03/11 11:30:16;;;;;;;7.80;2.00;;;14.50;64.70;;;;;;5009023;28;20026;-59
2021/03/11 11:32:41;;;;;;;7.23;1.83;;;14.80;63.10;;;;;;5007806;28;20044;-59
2021/03/11 11:35:08;;;;;;;7.00;2.03;;;14.90;61.80;;;;;;5007466;28;20030;-58
2021/03/11 11:37:33;;;;;;;11.23;2.03;;;15.10;62.00;;;;;;5007282;28;20067;-58
2021/03/11 11:40:03;;;;;;;10.80;1.47;;;15.30;59.40;;;;;;5006064;28;20161;-59
2021/03/11 11:42:28;;;;;;;12.93;2.00;;;15.20;57.20;;;;;;5008646;28;20737;-59
2021/03/11 11:44:54;;;;;;;9.47;1.83;;;15.20;58.10;;;;;;5008143;28;20087;-58
2021/03/11 11:47:20;;;;;;;9.63;1.80;;;15.30;58.80;;;;;;5008678;28;20377;-59
2021/03/11 11:49:46;;;;;;;7.33;2.37;;;15.20;58.10;;;;;;5011229;28;20017;-57
2021/03/11 11:52:13;;;;;;;9.87;2.10;;;15.10;57.60;;;;;;5008748;28;20541;-59
2021/03/11 11:54:39;;;;;;;9.27;2.23;;;15.10;58.20;;;;;;5008311;28;20030;-58
2021/03/11 11:57:06;;;;;;;11.30;2.53;;;15.20;59.30;;;;;;5006824;28;20385;-58
2021/03/11 11:59:33;;;;;;;13.50;2.47;;;15.30;59.40;;;;;;5008809;28;20041;-59
2021/03/11 12:01:59;;;;;;;20.40;3.53;;;15.30;58.20;;;;;;5008638;28;20053;-58
2021/03/11 12:04:27;;;;;;;15.90;2.93;;;15.20;59.30;;;;;;5008379;28;20042;-59
2021/03/11 12:06:53;;;;;;;10.57;2.60;;;15.20;59.40;;;;;;5008932;28;20029;-60
2021/03/11 12:09:19;;;;;;;18.43;2.97;;;15.20;59.80;;;;;;5008419;28;20038;-60
2021/03/11 12:11:49;;;;;;;14.20;2.23;;;15.30;60.90;;;;;;5007235;28;20072;-60
2021/03/11 12:14:17;;;;;;;11.07;2.70;;;15.40;60.70;;;;;;5008880;28;20044;-59
2021/03/11 12:16:43;;;;;;;14.53;2.97;;;15.40;60.60;;;;;;5012290;28;20038;-60
2021/03/11 12:19:09;;;;;;;7.67;2.17;;;15.70;59.40;;;;;;5012547;28;20124;-59
2021/03/11 12:21:35;;;;;;;8.57;2.10;;;15.80;57.50;;;;;;5012457;28;20052;-61
2021/03/11 12:24:02;;;;;;;9.13;2.40;;;15.60;57.80;;;;;;5011097;28;20367;-59
2021/03/11 12:26:30;;;;;;;25.27;4.07;;;15.60;57.30;;;;;;5012489;28;20025;-58
2021/03/11 12:28:57;;;;;;;18.23;2.87;;;15.60;58.30;;;;;;5012128;28;20037;-59
2021/03/11 12:31:25;;;;;;;19.03;3.50;;;15.60;58.90;;;;;;5011936;28;20095;-59
2021/03/11 12:33:52;;;;;;;20.37;3.17;;;15.60;59.90;;;;;;5011695;28;20048;-59
2021/03/11 12:36:20;;;;;;;30.83;4.50;;;15.70;60.70;;;;;;5009587;28;20041;-59
2021/03/11 12:38:46;;;;;;;26.27;3.83;;;15.40;61.90;;;;;;5009852;28;20041;-58
2021/03/11 12:41:14;;;;;;;25.30;3.40;;;15.50;63.40;;;;;;5010779;28;20037;-59
2021/03/11 12:43:41;;;;;;;12.13;2.20;;;16.70;60.30;;;;;;5011795;28;20100;-59
2021/03/11 12:46:07;;;;;;;14.05;3.17;;;17.90;56.30;;;;;;5011552;28;20148;-60
2021/03/11 12:48:37;;;;;;;19.23;2.28;;;18.00;54.50;;;;;;5011539;28;20736;-59
2021/03/11 12:51:03;;;;;;;7.32;2.45;;;17.80;54.80;;;;;;5011632;28;20030;-60
2021/03/11 12:53:28;;;;;;;10.00;2.20;;;18.60;53.90;;;;;;5010890;28;20355;-60
2021/03/11 12:55:54;;;;;;;8.45;2.33;;;19.60;52.90;;;;;;5012485;28;20044;-60
2021/03/11 12:58:25;;;;;;;9.13;2.03;;;20.60;50.80;;;;;;5010180;28;20040;-60
2021/03/11 13:00:53;;;;;;;8.07;1.95;;;21.30;48.70;;;;;;5011794;28;20030;-59
2021/03/11 13:03:19;;;;;;;8.88;1.90;;;21.30;48.80;;;;;;5010320;28;20042;-58